sensor_id;sensor_type;location;lat;lon;timestamp;P1;durP1;ratioP1;P2;durP2;ratioP2
24161;SDS011;12318;51.262;7.066;2023-06-04T00:00:48;3.17;;;1.10;;
24161;SDS011;12318;51.262;7.066;2023-06-04T00:03:14;2.45;;;1.17;;
24161;SDS011;12318;51.262;7.066;2023-06-04T00:05:39;1.90;;;1.05;;
24161;SDS011;12318;51.262;7.066;2023-06-04T00:08:05;6.00;;;1.48;;
24161;SDS011;12318;51.262;7.066;2023-06-04T00:10:31;2.70;;;1.13;;
24161;SDS011;12318;51.262;7.066;2023-06-04T00:12:58;3.72;;;1.20;;
24161;SDS011;12318;51.262;7.066;2023-06-04T00:15:24;1.95;;;0.90;;
24161;SDS011;12318;51.262;7.066;2023-06-04T00:17:51;2.05;;;1.00;;
24161;SDS011;12318;51.262;7.066;2023-06-04T00:20:17;2.92;;;0.90;;
24161;SDS011;12318;51.262;7.066;2023-06-04T00:22:43;3.25;;;1.10;;
24161;SDS011;12318;51.262;7.066;2023-06-04T00:25:09;2.72;;;1.02;;
24161;SDS011;12318;51.262;7.066;2023-06-04T00:27:35;5.18;;;1.55;;
24161;SDS011;12318;51.262;7.066;2023-06-04T00:30:02;3.97;;;1.20;;
24161;SDS011;12318;51.262;7.066;2023-06-04T00:32:28;3.85;;;1.10;;
24161;SDS011;12318;51.262;7.066;2023-06-04T00:34:54;2.78;;;1.20;;
24161;SDS011;12318;51.262;7.066;2023-06-04T00:37:23;5.88;;;1.20;;
24161;SDS011;12318;51.262;7.066;2023-06-04T00:39:49;3.35;;;1.10;;
24161;SDS011;12318;51.262;7.066;2023-06-04T00:42:15;2.50;;;1.20;;
24161;SDS011;12318;51.262;7.066;2023-06-04T00:44:41;1.20;;;0.90;;
24161;SDS011;12318;51.262;7.066;2023-06-04T00:47:11;1.73;;;1.05;;
24161;SDS011;12318;51.262;7.066;2023-06-04T00:49:39;3.08;;;1.30;;
24161;SDS011;12318;51.262;7.066;2023-06-04T00:52:06;2.40;;;1.00;;
24161;SDS011;12318;51.262;7.066;2023-06-04T00:54:36;2.42;;;1.15;;
24161;SDS011;12318;51.262;7.066;2023-06-04T00:57:05;3.42;;;1.08;;
24161;SDS011;12318;51.262;7.066;2023-06-04T00:59:32;1.63;;;1.15;;
24161;SDS011;12318;51.262;7.066;2023-06-04T01:05:06;3.63;;;1.00;;
24161;SDS011;12318;51.262;7.066;2023-06-04T01:07:57;2.38;;;1.05;;
24161;SDS011;12318;51.262;7.066;2023-06-04T01:10:23;4.40;;;1.33;;
24161;SDS011;12318;51.262;7.066;2023-06-04T01:12:49;3.85;;;1.42;;
24161;SDS011;12318;51.262;7.066;2023-06-04T01:15:15;4.03;;;1.25;;
24161;SDS011;12318;51.262;7.066;2023-06-04T01:17:42;3.00;;;1.23;;
24161;SDS011;12318;51.262;7.066;2023-06-04T01:25:46;2.67;;;1.30;;
24161;SDS011;12318;51.262;7.066;2023-06-04T01:28:14;3.45;;;1.40;;
24161;SDS011;12318;51.262;7.066;2023-06-04T01:30:44;2.38;;;1.27;;
24161;SDS011;12318;51.262;7.066;2023-06-04T01:33:11;2.90;;;1.30;;
24161;SDS011;12318;51.262;7.066;2023-06-04T01:35:39;3.72;;;1.50;;
24161;SDS011;12318;51.262;7.066;2023-06-04T01:38:05;5.18;;;1.50;;
24161;SDS011;12318;51.262;7.066;2023-06-04T01:40:31;2.58;;;1.40;;
24161;SDS011;12318;51.262;7.066;2023-06-04T01:42:57;8.48;;;1.52;;
24161;SDS011;12318;51.262;7.066;2023-06-04T01:45:23;4.78;;;1.50;;
24161;SDS011;12318;51.262;7.066;2023-06-04T01:47:51;3.65;;;1.60;;
24161;SDS011;12318;51.262;7.066;2023-06-04T01:50:17;2.55;;;1.73;;
24161;SDS011;12318;51.262;7.066;2023-06-04T01:52:43;3.80;;;1.70;;
24161;SDS011;12318;51.262;7.066;2023-06-04T01:55:09;5.55;;;1.50;;
24161;SDS011;12318;51.262;7.066;2023-06-04T01:57:38;2.00;;;1.20;;
24161;SDS011;12318;51.262;7.066;2023-06-04T02:00:05;2.30;;;1.58;;
24161;SDS011;12318;51.262;7.066;2023-06-04T02:02:36;6.07;;;1.75;;
24161;SDS011;12318;51.262;7.066;2023-06-04T02:05:05;3.58;;;1.65;;
24161;SDS011;12318;51.262;7.066;2023-06-04T02:07:34;5.40;;;1.70;;
24161;SDS011;12318;51.262;7.066;2023-06-04T02:10:09;3.55;;;1.98;;
24161;SDS011;12318;51.262;7.066;2023-06-04T02:12:40;7.85;;;2.47;;
24161;SDS011;12318;51.262;7.066;2023-06-04T02:15:18;7.00;;;2.20;;
24161;SDS011;12318;51.262;7.066;2023-06-04T02:17:43;6.13;;;1.95;;
24161;SDS011;12318;51.262;7.066;2023-06-04T02:20:11;3.50;;;1.80;;
24161;SDS011;12318;51.262;7.066;2023-06-04T02:22:37;5.20;;;1.90;;
24161;SDS011;12318;51.262;7.066;2023-06-04T02:25:03;2.75;;;1.77;;
24161;SDS011;12318;51.262;7.066;2023-06-04T02:27:30;4.38;;;2.08;;
24161;SDS011;12318;51.262;7.066;2023-06-04T02:29:56;3.75;;;1.92;;
24161;SDS011;12318;51.262;7.066;2023-06-04T02:32:22;5.72;;;2.15;;
24161;SDS011;12318;51.262;7.066;2023-06-04T02:34:47;4.90;;;2.03;;
24161;SDS011;12318;51.262;7.066;2023-06-04T02:37:14;3.63;;;1.90;;
24161;SDS011;12318;51.262;7.066;2023-06-04T02:39:40;5.68;;;2.08;;
24161;SDS011;12318;51.262;7.066;2023-06-04T02:42:06;4.70;;;2.00;;
24161;SDS011;12318;51.262;7.066;2023-06-04T02:44:32;5.03;;;2.22;;
24161;SDS011;12318;51.262;7.066;2023-06-04T02:46:57;5.10;;;2.10;;
24161;SDS011;12318;51.262;7.066;2023-06-04T02:49:23;6.43;;;2.00;;
24161;SDS011;12318;51.262;7.066;2023-06-04T02:51:50;3.72;;;1.95;;
24161;SDS011;12318;51.262;7.066;2023-06-04T02:54:16;9.40;;;1.90;;
24161;SDS011;12318;51.262;7.066;2023-06-04T02:56:42;3.25;;;1.92;;
24161;SDS011;12318;51.262;7.066;2023-06-04T02:59:08;5.38;;;2.15;;
24161;SDS011;12318;51.262;7.066;2023-06-04T03:01:34;4.90;;;1.92;;
24161;SDS011;12318;51.262;7.066;2023-06-04T03:04:01;5.45;;;2.03;;
24161;SDS011;12318;51.262;7.066;2023-06-04T03:06:29;5.97;;;1.90;;
24161;SDS011;12318;51.262;7.066;2023-06-04T03:08:57;5.50;;;2.08;;
24161;SDS011;12318;51.262;7.066;2023-06-04T03:11:23;6.13;;;1.90;;
24161;SDS011;12318;51.262;7.066;2023-06-04T03:13:50;3.67;;;1.92;;
24161;SDS011;12318;51.262;7.066;2023-06-04T03:16:17;8.15;;;1.98;;
24161;SDS011;12318;51.262;7.066;2023-06-04T03:18:43;5.93;;;2.20;;
24161;SDS011;12318;51.262;7.066;2023-06-04T03:21:10;4.93;;;2.00;;
24161;SDS011;12318;51.262;7.066;2023-06-04T03:23:38;3.83;;;2.20;;
24161;SDS011;12318;51.262;7.066;2023-06-04T03:26:05;4.25;;;2.00;;
24161;SDS011;12318;51.262;7.066;2023-06-04T03:28:31;5.05;;;2.00;;
24161;SDS011;12318;51.262;7.066;2023-06-04T03:30:58;2.90;;;1.73;;
24161;SDS011;12318;51.262;7.066;2023-06-04T03:33:24;3.47;;;2.00;;
24161;SDS011;12318;51.262;7.066;2023-06-04T03:35:50;3.88;;;2.10;;
24161;SDS011;12318;51.262;7.066;2023-06-04T03:38:17;6.72;;;2.03;;
24161;SDS011;12318;51.262;7.066;2023-06-04T03:40:43;4.20;;;1.90;;
24161;SDS011;12318;51.262;7.066;2023-06-04T03:43:10;5.70;;;2.10;;
24161;SDS011;12318;51.262;7.066;2023-06-04T03:45:36;3.53;;;1.75;;
24161;SDS011;12318;51.262;7.066;2023-06-04T03:48:02;7.55;;;2.20;;
24161;SDS011;12318;51.262;7.066;2023-06-04T03:50:28;2.40;;;1.80;;
24161;SDS011;12318;51.262;7.066;2023-06-04T03:52:54;2.80;;;1.85;;
24161;SDS011;12318;51.262;7.066;2023-06-04T03:55:19;3.47;;;2.00;;
24161;SDS011;12318;51.262;7.066;2023-06-04T03:57:45;3.78;;;2.13;;
24161;SDS011;12318;51.262;7.066;2023-06-04T04:00:12;3.80;;;2.05;;
24161;SDS011;12318;51.262;7.066;2023-06-04T04:02:42;5.90;;;2.00;;
24161;SDS011;12318;51.262;7.066;2023-06-04T04:05:08;4.03;;;1.90;;
24161;SDS011;12318;51.262;7.066;2023-06-04T04:07:34;5.97;;;1.85;;
24161;SDS011;12318;51.262;7.066;2023-06-04T04:10:00;3.78;;;2.03;;
24161;SDS011;12318;51.262;7.066;2023-06-04T04:12:26;4.38;;;2.08;;
24161;SDS011;12318;51.262;7.066;2023-06-04T04:14:52;4.97;;;1.90;;
24161;SDS011;12318;51.262;7.066;2023-06-04T04:17:18;3.00;;;1.60;;
24161;SDS011;12318;51.262;7.066;2023-06-04T04:19:44;4.13;;;2.20;;
24161;SDS011;12318;51.262;7.066;2023-06-04T04:22:10;3.92;;;1.90;;
24161;SDS011;12318;51.262;7.066;2023-06-04T04:24:36;8.13;;;2.38;;
24161;SDS011;12318;51.262;7.066;2023-06-04T04:27:03;4.55;;;2.00;;
24161;SDS011;12318;51.262;7.066;2023-06-04T04:29:30;3.33;;;1.83;;
24161;SDS011;12318;51.262;7.066;2023-06-04T04:31:59;4.30;;;1.90;;
24161;SDS011;12318;51.262;7.066;2023-06-04T04:34:26;4.82;;;2.00;;
24161;SDS011;12318;51.262;7.066;2023-06-04T04:36:52;2.90;;;1.88;;
24161;SDS011;12318;51.262;7.066;2023-06-04T04:39:22;3.35;;;1.63;;
24161;SDS011;12318;51.262;7.066;2023-06-04T04:41:51;4.40;;;1.80;;
24161;SDS011;12318;51.262;7.066;2023-06-04T04:44:19;2.85;;;1.77;;
24161;SDS011;12318;51.262;7.066;2023-06-04T04:46:45;4.57;;;1.70;;
24161;SDS011;12318;51.262;7.066;2023-06-04T04:49:15;6.00;;;2.10;;
24161;SDS011;12318;51.262;7.066;2023-06-04T04:51:41;3.63;;;2.00;;
24161;SDS011;12318;51.262;7.066;2023-06-04T04:54:06;4.65;;;2.08;;
24161;SDS011;12318;51.262;7.066;2023-06-04T04:56:35;3.13;;;2.08;;
24161;SDS011;12318;51.262;7.066;2023-06-04T04:59:01;6.53;;;2.13;;
24161;SDS011;12318;51.262;7.066;2023-06-04T05:01:27;5.30;;;2.17;;
24161;SDS011;12318;51.262;7.066;2023-06-04T05:03:53;2.95;;;1.90;;
24161;SDS011;12318;51.262;7.066;2023-06-04T05:06:19;2.83;;;1.90;;
24161;SDS011;12318;51.262;7.066;2023-06-04T05:08:46;5.90;;;2.00;;
24161;SDS011;12318;51.262;7.066;2023-06-04T05:11:12;6.88;;;1.77;;
24161;SDS011;12318;51.262;7.066;2023-06-04T05:13:38;5.35;;;1.90;;
24161;SDS011;12318;51.262;7.066;2023-06-04T05:16:04;6.20;;;2.13;;
24161;SDS011;12318;51.262;7.066;2023-06-04T05:18:33;5.10;;;2.10;;
24161;SDS011;12318;51.262;7.066;2023-06-04T05:20:59;3.65;;;2.13;;
24161;SDS011;12318;51.262;7.066;2023-06-04T05:23:27;2.78;;;1.92;;
24161;SDS011;12318;51.262;7.066;2023-06-04T05:25:55;3.88;;;2.08;;
24161;SDS011;12318;51.262;7.066;2023-06-04T05:28:21;7.07;;;2.00;;
24161;SDS011;12318;51.262;7.066;2023-06-04T05:30:50;4.90;;;2.35;;
24161;SDS011;12318;51.262;7.066;2023-06-04T05:33:17;4.22;;;2.08;;
24161;SDS011;12318;51.262;7.066;2023-06-04T05:35:46;4.80;;;1.83;;
24161;SDS011;12318;51.262;7.066;2023-06-04T05:38:13;4.75;;;2.13;;
24161;SDS011;12318;51.262;7.066;2023-06-04T05:40:44;4.15;;;2.28;;
24161;SDS011;12318;51.262;7.066;2023-06-04T05:43:10;3.60;;;2.05;;
24161;SDS011;12318;51.262;7.066;2023-06-04T05:45:36;4.70;;;1.88;;
24161;SDS011;12318;51.262;7.066;2023-06-04T05:48:02;3.35;;;1.73;;
24161;SDS011;12318;51.262;7.066;2023-06-04T05:50:29;6.57;;;2.38;;
24161;SDS011;12318;51.262;7.066;2023-06-04T05:52:55;6.13;;;2.50;;
24161;SDS011;12318;51.262;7.066;2023-06-04T05:55:22;4.25;;;2.03;;
24161;SDS011;12318;51.262;7.066;2023-06-04T05:57:48;3.05;;;1.80;;
24161;SDS011;12318;51.262;7.066;2023-06-04T06:00:17;3.33;;;1.90;;
24161;SDS011;12318;51.262;7.066;2023-06-04T06:02:43;3.50;;;1.90;;
24161;SDS011;12318;51.262;7.066;2023-06-04T06:05:10;4.20;;;1.85;;
24161;SDS011;12318;51.262;7.066;2023-06-04T06:07:36;3.72;;;1.63;;
24161;SDS011;12318;51.262;7.066;2023-06-04T06:10:02;2.83;;;1.63;;
24161;SDS011;12318;51.262;7.066;2023-06-04T06:12:28;2.85;;;1.60;;
24161;SDS011;12318;51.262;7.066;2023-06-04T06:14:54;5.70;;;1.80;;
24161;SDS011;12318;51.262;7.066;2023-06-04T06:17:20;4.75;;;1.70;;
24161;SDS011;12318;51.262;7.066;2023-06-04T06:19:46;3.17;;;1.60;;
24161;SDS011;12318;51.262;7.066;2023-06-04T06:22:11;3.10;;;1.70;;
24161;SDS011;12318;51.262;7.066;2023-06-04T06:24:38;5.72;;;1.63;;
24161;SDS011;12318;51.262;7.066;2023-06-04T06:27:04;2.30;;;1.40;;
24161;SDS011;12318;51.262;7.066;2023-06-04T06:29:31;4.28;;;1.80;;
24161;SDS011;12318;51.262;7.066;2023-06-04T06:31:57;3.65;;;1.50;;
24161;SDS011;12318;51.262;7.066;2023-06-04T06:34:23;3.78;;;1.58;;
24161;SDS011;12318;51.262;7.066;2023-06-04T06:36:48;3.25;;;1.40;;
24161;SDS011;12318;51.262;7.066;2023-06-04T06:39:15;4.25;;;2.00;;
24161;SDS011;12318;51.262;7.066;2023-06-04T06:41:41;5.03;;;1.27;;
24161;SDS011;12318;51.262;7.066;2023-06-04T06:44:07;8.57;;;1.65;;
24161;SDS011;12318;51.262;7.066;2023-06-04T06:46:33;6.20;;;1.42;;
24161;SDS011;12318;51.262;7.066;2023-06-04T06:48:59;4.93;;;1.48;;
24161;SDS011;12318;51.262;7.066;2023-06-04T06:51:24;3.25;;;1.48;;
24161;SDS011;12318;51.262;7.066;2023-06-04T06:53:50;6.80;;;1.40;;
24161;SDS011;12318;51.262;7.066;2023-06-04T06:56:16;2.10;;;1.35;;
24161;SDS011;12318;51.262;7.066;2023-06-04T06:58:43;3.00;;;1.38;;
24161;SDS011;12318;51.262;7.066;2023-06-04T07:01:10;4.20;;;1.38;;
24161;SDS011;12318;51.262;7.066;2023-06-04T07:03:36;6.03;;;1.42;;
24161;SDS011;12318;51.262;7.066;2023-06-04T07:06:03;5.15;;;1.58;;
24161;SDS011;12318;51.262;7.066;2023-06-04T07:08:28;3.80;;;1.55;;
24161;SDS011;12318;51.262;7.066;2023-06-04T07:10:55;3.33;;;1.70;;
24161;SDS011;12318;51.262;7.066;2023-06-04T07:13:21;2.35;;;1.42;;
24161;SDS011;12318;51.262;7.066;2023-06-04T07:15:47;4.63;;;1.23;;
24161;SDS011;12318;51.262;7.066;2023-06-04T07:18:13;3.97;;;1.48;;
24161;SDS011;12318;51.262;7.066;2023-06-04T07:20:38;5.55;;;1.52;;
24161;SDS011;12318;51.262;7.066;2023-06-04T07:23:05;3.70;;;1.63;;
24161;SDS011;12318;51.262;7.066;2023-06-04T07:25:32;11.93;;;1.83;;
24161;SDS011;12318;51.262;7.066;2023-06-04T07:27:58;4.03;;;1.60;;
24161;SDS011;12318;51.262;7.066;2023-06-04T07:30:24;3.55;;;1.75;;
24161;SDS011;12318;51.262;7.066;2023-06-04T07:32:50;3.05;;;1.48;;
24161;SDS011;12318;51.262;7.066;2023-06-04T07:35:16;3.47;;;1.75;;
24161;SDS011;12318;51.262;7.066;2023-06-04T07:37:42;2.85;;;1.63;;
24161;SDS011;12318;51.262;7.066;2023-06-04T07:40:11;2.88;;;1.63;;
24161;SDS011;12318;51.262;7.066;2023-06-04T07:42:37;4.82;;;1.73;;
24161;SDS011;12318;51.262;7.066;2023-06-04T07:45:03;5.43;;;1.70;;
24161;SDS011;12318;51.262;7.066;2023-06-04T07:47:29;4.70;;;1.70;;
24161;SDS011;12318;51.262;7.066;2023-06-04T07:49:55;6.70;;;1.83;;
24161;SDS011;12318;51.262;7.066;2023-06-04T07:52:21;4.43;;;1.63;;
24161;SDS011;12318;51.262;7.066;2023-06-04T07:54:46;3.67;;;1.60;;
24161;SDS011;12318;51.262;7.066;2023-06-04T07:57:13;7.80;;;2.20;;
24161;SDS011;12318;51.262;7.066;2023-06-04T07:59:39;4.03;;;1.60;;
24161;SDS011;12318;51.262;7.066;2023-06-04T08:02:05;7.32;;;1.92;;
24161;SDS011;12318;51.262;7.066;2023-06-04T08:04:32;4.15;;;1.70;;
24161;SDS011;12318;51.262;7.066;2023-06-04T08:06:58;4.40;;;1.90;;
24161;SDS011;12318;51.262;7.066;2023-06-04T08:09:24;2.72;;;1.50;;
24161;SDS011;12318;51.262;7.066;2023-06-04T08:11:50;4.85;;;1.70;;
24161;SDS011;12318;51.262;7.066;2023-06-04T08:14:16;3.97;;;1.73;;
24161;SDS011;12318;51.262;7.066;2023-06-04T08:16:42;5.25;;;1.90;;
24161;SDS011;12318;51.262;7.066;2023-06-04T08:19:07;3.72;;;1.70;;
24161;SDS011;12318;51.262;7.066;2023-06-04T08:21:33;3.92;;;1.80;;
24161;SDS011;12318;51.262;7.066;2023-06-04T08:24:00;4.30;;;1.80;;
24161;SDS011;12318;51.262;7.066;2023-06-04T08:26:25;3.50;;;1.58;;
24161;SDS011;12318;51.262;7.066;2023-06-04T08:28:54;12.05;;;1.88;;
24161;SDS011;12318;51.262;7.066;2023-06-04T08:31:21;6.65;;;1.80;;
24161;SDS011;12318;51.262;7.066;2023-06-04T08:33:47;3.42;;;1.63;;
24161;SDS011;12318;51.262;7.066;2023-06-04T08:36:14;15.68;;;2.50;;
24161;SDS011;12318;51.262;7.066;2023-06-04T08:38:43;6.28;;;1.88;;
24161;SDS011;12318;51.262;7.066;2023-06-04T08:41:20;3.97;;;1.88;;
24161;SDS011;12318;51.262;7.066;2023-06-04T08:44:00;4.82;;;1.70;;
24161;SDS011;12318;51.262;7.066;2023-06-04T08:46:31;5.43;;;1.77;;
24161;SDS011;12318;51.262;7.066;2023-06-04T08:49:01;5.53;;;1.50;;
24161;SDS011;12318;51.262;7.066;2023-06-04T08:51:28;3.15;;;1.60;;
24161;SDS011;12318;51.262;7.066;2023-06-04T08:53:58;7.80;;;1.90;;
24161;SDS011;12318;51.262;7.066;2023-06-04T08:56:24;9.68;;;1.60;;
24161;SDS011;12318;51.262;7.066;2023-06-04T08:58:51;2.63;;;1.20;;
24161;SDS011;12318;51.262;7.066;2023-06-04T09:01:18;6.90;;;1.30;;
24161;SDS011;12318;51.262;7.066;2023-06-04T09:03:44;3.42;;;1.75;;
24161;SDS011;12318;51.262;7.066;2023-06-04T09:06:10;3.15;;;1.60;;
24161;SDS011;12318;51.262;7.066;2023-06-04T09:08:37;6.00;;;1.40;;
24161;SDS011;12318;51.262;7.066;2023-06-04T09:11:08;2.55;;;1.77;;
24161;SDS011;12318;51.262;7.066;2023-06-04T09:13:36;3.53;;;1.58;;
24161;SDS011;12318;51.262;7.066;2023-06-04T09:16:05;7.13;;;1.55;;
24161;SDS011;12318;51.262;7.066;2023-06-04T09:18:31;5.72;;;1.30;;
24161;SDS011;12318;51.262;7.066;2023-06-04T09:21:01;5.40;;;1.58;;
24161;SDS011;12318;51.262;7.066;2023-06-04T09:23:31;2.55;;;1.38;;
24161;SDS011;12318;51.262;7.066;2023-06-04T09:26:08;4.60;;;1.38;;
24161;SDS011;12318;51.262;7.066;2023-06-04T09:28:45;5.43;;;1.80;;
24161;SDS011;12318;51.262;7.066;2023-06-04T09:31:15;2.63;;;1.33;;
24161;SDS011;12318;51.262;7.066;2023-06-04T09:33:44;3.38;;;1.45;;
24161;SDS011;12318;51.262;7.066;2023-06-04T09:36:11;2.85;;;1.33;;
24161;SDS011;12318;51.262;7.066;2023-06-04T09:38:37;6.78;;;1.60;;
24161;SDS011;12318;51.262;7.066;2023-06-04T09:41:03;3.08;;;1.30;;
24161;SDS011;12318;51.262;7.066;2023-06-04T09:43:30;2.92;;;1.40;;
24161;SDS011;12318;51.262;7.066;2023-06-04T09:46:08;7.85;;;1.80;;
24161;SDS011;12318;51.262;7.066;2023-06-04T09:48:35;4.05;;;1.40;;
24161;SDS011;12318;51.262;7.066;2023-06-04T09:51:13;6.45;;;1.38;;
24161;SDS011;12318;51.262;7.066;2023-06-04T09:53:40;9.43;;;1.70;;
24161;SDS011;12318;51.262;7.066;2023-06-04T09:56:07;5.88;;;1.60;;
24161;SDS011;12318;51.262;7.066;2023-06-04T09:58:34;3.47;;;1.20;;
24161;SDS011;12318;51.262;7.066;2023-06-04T10:01:01;12.20;;;1.70;;
24161;SDS011;12318;51.262;7.066;2023-06-04T10:03:32;4.68;;;1.40;;
24161;SDS011;12318;51.262;7.066;2023-06-04T10:08:27;5.25;;;1.50;;
24161;SDS011;12318;51.262;7.066;2023-06-04T10:10:56;3.97;;;1.60;;
24161;SDS011;12318;51.262;7.066;2023-06-04T10:13:26;6.15;;;1.55;;
24161;SDS011;12318;51.262;7.066;2023-06-04T10:15:56;3.45;;;1.30;;
24161;SDS011;12318;51.262;7.066;2023-06-04T10:18:24;4.55;;;1.63;;
24161;SDS011;12318;51.262;7.066;2023-06-04T10:20:52;7.50;;;1.63;;
24161;SDS011;12318;51.262;7.066;2023-06-04T10:23:20;2.05;;;1.42;;
24161;SDS011;12318;51.262;7.066;2023-06-04T10:25:48;4.63;;;1.60;;
24161;SDS011;12318;51.262;7.066;2023-06-04T10:28:15;3.78;;;1.80;;
24161;SDS011;12318;51.262;7.066;2023-06-04T10:30:43;5.13;;;1.90;;
24161;SDS011;12318;51.262;7.066;2023-06-04T10:33:09;2.55;;;1.48;;
24161;SDS011;12318;51.262;7.066;2023-06-04T10:35:35;4.72;;;1.63;;
24161;SDS011;12318;51.262;7.066;2023-06-04T10:40:36;6.90;;;1.50;;
24161;SDS011;12318;51.262;7.066;2023-06-04T10:43:05;7.38;;;1.63;;
24161;SDS011;12318;51.262;7.066;2023-06-04T10:45:32;2.08;;;1.40;;
24161;SDS011;12318;51.262;7.066;2023-06-04T10:48:02;5.00;;;1.45;;
24161;SDS011;12318;51.262;7.066;2023-06-04T10:50:35;3.13;;;1.30;;
24161;SDS011;12318;51.262;7.066;2023-06-04T10:53:12;4.40;;;1.50;;
24161;SDS011;12318;51.262;7.066;2023-06-04T10:55:45;11.02;;;1.63;;
24161;SDS011;12318;51.262;7.066;2023-06-04T10:58:12;4.95;;;1.38;;
24161;SDS011;12318;51.262;7.066;2023-06-04T11:00:40;2.40;;;1.30;;
24161;SDS011;12318;51.262;7.066;2023-06-04T11:03:14;4.50;;;1.40;;
24161;SDS011;12318;51.262;7.066;2023-06-04T11:05:44;2.58;;;1.40;;
24161;SDS011;12318;51.262;7.066;2023-06-04T11:08:12;5.28;;;1.48;;
24161;SDS011;12318;51.262;7.066;2023-06-04T11:10:43;8.05;;;1.50;;
24161;SDS011;12318;51.262;7.066;2023-06-04T11:13:10;6.28;;;1.65;;
24161;SDS011;12318;51.262;7.066;2023-06-04T11:15:45;3.80;;;1.60;;
24161;SDS011;12318;51.262;7.066;2023-06-04T11:20:44;3.80;;;1.70;;
24161;SDS011;12318;51.262;7.066;2023-06-04T11:23:12;4.32;;;1.50;;
24161;SDS011;12318;51.262;7.066;2023-06-04T11:25:38;6.88;;;1.70;;
24161;SDS011;12318;51.262;7.066;2023-06-04T11:28:05;2.70;;;1.60;;
24161;SDS011;12318;51.262;7.066;2023-06-04T11:30:31;4.40;;;1.67;;
24161;SDS011;12318;51.262;7.066;2023-06-04T11:33:04;3.35;;;1.50;;
24161;SDS011;12318;51.262;7.066;2023-06-04T11:35:31;5.00;;;2.03;;
24161;SDS011;12318;51.262;7.066;2023-06-04T11:38:05;4.60;;;1.60;;
24161;SDS011;12318;51.262;7.066;2023-06-04T11:40:31;6.82;;;1.75;;
24161;SDS011;12318;51.262;7.066;2023-06-04T11:42:57;8.68;;;1.55;;
24161;SDS011;12318;51.262;7.066;2023-06-04T11:45:23;3.28;;;1.60;;
24161;SDS011;12318;51.262;7.066;2023-06-04T11:47:54;5.00;;;1.95;;
24161;SDS011;12318;51.262;7.066;2023-06-04T11:50:21;7.57;;;1.77;;
24161;SDS011;12318;51.262;7.066;2023-06-04T11:52:48;3.53;;;1.67;;
24161;SDS011;12318;51.262;7.066;2023-06-04T11:55:14;3.25;;;1.60;;
24161;SDS011;12318;51.262;7.066;2023-06-04T12:00:11;3.53;;;1.60;;
24161;SDS011;12318;51.262;7.066;2023-06-04T12:02:47;7.63;;;1.58;;
24161;SDS011;12318;51.262;7.066;2023-06-04T12:05:18;8.98;;;1.80;;
24161;SDS011;12318;51.262;7.066;2023-06-04T12:07:45;4.97;;;1.55;;
24161;SDS011;12318;51.262;7.066;2023-06-04T12:10:20;4.90;;;1.75;;
24161;SDS011;12318;51.262;7.066;2023-06-04T12:12:53;2.83;;;1.60;;
24161;SDS011;12318;51.262;7.066;2023-06-04T12:15:20;3.83;;;1.60;;
24161;SDS011;12318;51.262;7.066;2023-06-04T12:17:53;5.13;;;1.67;;
24161;SDS011;12318;51.262;7.066;2023-06-04T12:20:32;9.80;;;1.42;;
24161;SDS011;12318;51.262;7.066;2023-06-04T12:23:01;2.55;;;1.30;;
24161;SDS011;12318;51.262;7.066;2023-06-04T12:25:28;3.20;;;1.50;;
24161;SDS011;12318;51.262;7.066;2023-06-04T12:27:55;3.45;;;1.50;;
24161;SDS011;12318;51.262;7.066;2023-06-04T12:30:21;6.30;;;1.60;;
24161;SDS011;12318;51.262;7.066;2023-06-04T12:32:48;4.50;;;1.33;;
24161;SDS011;12318;51.262;7.066;2023-06-04T12:35:15;6.63;;;1.52;;
24161;SDS011;12318;51.262;7.066;2023-06-04T12:37:41;9.02;;;1.38;;
24161;SDS011;12318;51.262;7.066;2023-06-04T12:40:07;5.50;;;1.50;;
24161;SDS011;12318;51.262;7.066;2023-06-04T12:42:34;4.35;;;1.50;;
24161;SDS011;12318;51.262;7.066;2023-06-04T12:44:59;3.67;;;1.50;;
24161;SDS011;12318;51.262;7.066;2023-06-04T12:47:25;2.70;;;1.45;;
24161;SDS011;12318;51.262;7.066;2023-06-04T12:49:51;6.32;;;1.45;;
24161;SDS011;12318;51.262;7.066;2023-06-04T12:52:17;6.88;;;1.30;;
24161;SDS011;12318;51.262;7.066;2023-06-04T12:54:43;2.50;;;1.60;;
24161;SDS011;12318;51.262;7.066;2023-06-04T12:57:09;3.92;;;1.42;;
24161;SDS011;12318;51.262;7.066;2023-06-04T12:59:35;5.35;;;1.42;;
24161;SDS011;12318;51.262;7.066;2023-06-04T13:02:01;1.60;;;1.20;;
24161;SDS011;12318;51.262;7.066;2023-06-04T13:04:26;3.88;;;1.50;;
24161;SDS011;12318;51.262;7.066;2023-06-04T13:06:52;2.67;;;1.55;;
24161;SDS011;12318;51.262;7.066;2023-06-04T13:09:24;4.30;;;1.40;;
24161;SDS011;12318;51.262;7.066;2023-06-04T13:11:50;7.05;;;1.55;;
24161;SDS011;12318;51.262;7.066;2023-06-04T13:14:16;4.13;;;1.63;;
24161;SDS011;12318;51.262;7.066;2023-06-04T13:16:42;2.97;;;1.20;;
24161;SDS011;12318;51.262;7.066;2023-06-04T13:19:10;3.17;;;1.35;;
24161;SDS011;12318;51.262;7.066;2023-06-04T13:21:36;8.95;;;1.33;;
24161;SDS011;12318;51.262;7.066;2023-06-04T13:24:01;3.75;;;1.30;;
24161;SDS011;12318;51.262;7.066;2023-06-04T13:26:27;4.68;;;1.30;;
24161;SDS011;12318;51.262;7.066;2023-06-04T13:28:53;2.47;;;1.45;;
24161;SDS011;12318;51.262;7.066;2023-06-04T13:31:19;4.05;;;1.30;;
24161;SDS011;12318;51.262;7.066;2023-06-04T13:33:46;3.33;;;1.27;;
24161;SDS011;12318;51.262;7.066;2023-06-04T13:36:12;3.72;;;1.50;;
24161;SDS011;12318;51.262;7.066;2023-06-04T13:38:37;2.90;;;1.52;;
24161;SDS011;12318;51.262;7.066;2023-06-04T13:41:03;2.83;;;1.33;;
24161;SDS011;12318;51.262;7.066;2023-06-04T13:43:29;3.47;;;1.45;;
24161;SDS011;12318;51.262;7.066;2023-06-04T13:45:54;9.38;;;1.35;;
24161;SDS011;12318;51.262;7.066;2023-06-04T13:48:20;4.72;;;1.35;;
24161;SDS011;12318;51.262;7.066;2023-06-04T13:50:46;2.35;;;1.33;;
24161;SDS011;12318;51.262;7.066;2023-06-04T13:53:12;5.03;;;1.30;;
24161;SDS011;12318;51.262;7.066;2023-06-04T13:55:38;3.83;;;1.48;;
24161;SDS011;12318;51.262;7.066;2023-06-04T13:58:04;4.07;;;1.20;;
24161;SDS011;12318;51.262;7.066;2023-06-04T14:00:30;2.97;;;1.30;;
24161;SDS011;12318;51.262;7.066;2023-06-04T14:02:56;5.72;;;1.75;;
24161;SDS011;12318;51.262;7.066;2023-06-04T14:05:23;2.80;;;1.35;;
24161;SDS011;12318;51.262;7.066;2023-06-04T14:07:49;6.55;;;1.50;;
24161;SDS011;12318;51.262;7.066;2023-06-04T14:10:15;2.40;;;1.40;;
24161;SDS011;12318;51.262;7.066;2023-06-04T14:12:41;3.28;;;1.55;;
24161;SDS011;12318;51.262;7.066;2023-06-04T14:15:07;5.00;;;1.50;;
24161;SDS011;12318;51.262;7.066;2023-06-04T14:17:34;3.85;;;1.33;;
24161;SDS011;12318;51.262;7.066;2023-06-04T14:20:01;4.30;;;1.33;;
24161;SDS011;12318;51.262;7.066;2023-06-04T14:22:35;4.55;;;1.40;;
24161;SDS011;12318;51.262;7.066;2023-06-04T14:25:05;2.67;;;1.30;;
24161;SDS011;12318;51.262;7.066;2023-06-04T14:27:32;5.88;;;2.20;;
24161;SDS011;12318;51.262;7.066;2023-06-04T14:29:58;1.25;;;1.15;;
24161;SDS011;12318;51.262;7.066;2023-06-04T14:32:25;3.17;;;1.40;;
24161;SDS011;12318;51.262;7.066;2023-06-04T14:34:51;8.07;;;1.48;;
24161;SDS011;12318;51.262;7.066;2023-06-04T14:37:17;2.47;;;1.27;;
24161;SDS011;12318;51.262;7.066;2023-06-04T14:39:44;4.47;;;1.55;;
24161;SDS011;12318;51.262;7.066;2023-06-04T14:42:10;2.85;;;1.35;;
24161;SDS011;12318;51.262;7.066;2023-06-04T14:44:36;2.97;;;1.20;;
24161;SDS011;12318;51.262;7.066;2023-06-04T14:47:02;7.60;;;1.60;;
24161;SDS011;12318;51.262;7.066;2023-06-04T14:49:27;3.35;;;1.48;;
24161;SDS011;12318;51.262;7.066;2023-06-04T14:51:53;3.47;;;1.17;;
24161;SDS011;12318;51.262;7.066;2023-06-04T14:54:19;2.42;;;1.30;;
24161;SDS011;12318;51.262;7.066;2023-06-04T14:56:45;2.42;;;1.40;;
24161;SDS011;12318;51.262;7.066;2023-06-04T14:59:10;4.70;;;1.50;;
24161;SDS011;12318;51.262;7.066;2023-06-04T15:01:38;10.77;;;1.13;;
24161;SDS011;12318;51.262;7.066;2023-06-04T15:04:05;3.60;;;1.30;;
24161;SDS011;12318;51.262;7.066;2023-06-04T15:06:32;2.05;;;1.33;;